15:16
Airports
Links
Donate
Help keep this website running!
PayPal
Bitcoin
METAR
KLCK 191455Z AUTO 21011KT 10SM CLR M05/M11 A3015 RMK AO2 T10531108
Current Weather Conditions at KLCK
VFR 14:55:00 19-01-18
Automated station, no observer
Altimeter:30.15 hg
Temp:-5.3°c 23°f
Dew point:-10.8°c 14°f
Wind:11 knots, 12.7 mph, 6 m/s, from 210°
Visibility:10.0 statute miles
(CLR) Clear
Past METAR reports
VFR 14:35:00 19-01-18
Automated station, no observer
Altimeter:30.15 hg
Temp:-5.8°c 23°f
Dew point:-11.1°c 12°f
Wind:12 knots, 13.8 mph, 6 m/s, from 210°
Visibility:10.0 statute miles
(CLR) Clear
KLCK 191435Z AUTO 21012KT 10SM CLR M06/M11 A3015 RMK AO2 T10581111
VFR 14:15:00 19-01-18
Automated station, no observer
Altimeter:30.16 hg
Temp:-6.2°c 21°f
Dew point:-11.4°c 12°f
Wind:12 knots, 13.8 mph, 6 m/s, from 210°
Visibility:10.0 statute miles
(CLR) Clear
KLCK 191415Z AUTO 21012KT 10SM CLR M06/M11 A3016 RMK AO2 T10621114
VFR 13:55:00 19-01-18
Automated station, no observer
Altimeter:30.16 hg
Temp:-6.7°c 21°f
Dew point:-11.6°c 12°f
Wind:12 knots, 13.8 mph, 6 m/s, from 210°
Visibility:10.0 statute miles
(CLR) Clear
KLCK 191355Z AUTO 21012KT 10SM CLR M07/M12 A3016 RMK AO2 T10671116
VFR 13:35:00 19-01-18
Automated station, no observer
Altimeter:30.15 hg
Temp:-7.2°c 19°f
Dew point:-11.8°c 12°f
Wind:12 knots, 13.8 mph, 6 m/s, from 200°
Visibility:10.0 statute miles
(CLR) Clear
KLCK 191335Z AUTO 20012KT 10SM CLR M07/M12 A3015 RMK AO2 T10721118
VFR 13:15:00 19-01-18
Automated station, no observer
Altimeter:30.16 hg
Temp:-7.5°c 19°f
Dew point:-12.0°c 10°f
Wind:9 knots, 10.4 mph, 5 m/s, from 200°
Visibility:10.0 statute miles
(CLR) Clear
KLCK 191315Z AUTO 20009KT 10SM CLR M07/M12 A3016 RMK AO2 T10751120
VFR 12:55:00 19-01-18
Automated station, no observer
Altimeter:30.17 hg
Temp:-7.5°c 19°f
Dew point:-12.0°c 10°f
Wind:9 knots, 10.4 mph, 5 m/s, from 200°
Visibility:10.0 statute miles
(CLR) Clear
KLCK 191255Z AUTO 20009KT 10SM CLR M07/M12 A3017 RMK AO2 T10751120
TAF
KLCK 191132Z 1912/2012 20010KT P6SM SKC FM191500 22014KT P6SM SCT250
Forecast at KLCK
12:00 19-01-18 to 15:00 19-01-18
Wind:10 Knots from 200°
Visibility:6.21 statute miles
SKC Clear
FM 15:00 19-01-18 to 12:00 20-01-18
Wind:14 Knots from 220°
Visibility:6.21 statute miles
25000SCT Scattered